Time;durP1;ratioP1;P1;durP2;ratioP2;P2;SDS_P1;SDS_P2;PMS_P1;PMS_P2;Temp;Humidity;BMP_temperature;BMP_pressure;BME280_temperature;BME280_humidity;BME280_pressure;Samples;Min_cycle;Max_cycle;Signal;HPM_P1;HPM_P2
2022/07/29 00:00:45;;;;;;;7.03;6.32;;;;;;;;;;4938619;29;20490;-72
2022/07/29 00:03:11;;;;;;;7.75;6.80;;;;;;;;;;4955944;28;20055;-72
2022/07/29 00:05:41;;;;;;;8.45;6.40;;;;;;;;;;4955949;28;20039;-71
2022/07/29 00:08:08;;;;;;;8.82;6.97;;;;;;;;;;4956032;28;20078;-71
2022/07/29 00:10:34;;;;;;;8.27;6.18;;;;;;;;;;4955853;29;20055;-71
2022/07/29 00:13:03;;;;;;;8.55;7.20;;;;;;;;;;4955924;29;20027;-72
2022/07/29 00:15:29;;;;;;;7.13;6.43;;;;;;;;;;4955781;29;20058;-73
2022/07/29 00:17:55;;;;;;;8.45;6.45;;;;;;;;;;4955641;29;20197;-73
2022/07/29 00:20:21;;;;;;;7.63;6.40;;;;;;;;;;4955811;29;20062;-73
2022/07/29 00:22:47;;;;;;;8.15;6.93;;;;;;;;;;4955601;29;20019;-72
2022/07/29 00:25:13;;;;;;;13.48;6.97;;;;;;;;;;4937882;29;20464;-72
2022/07/29 00:27:39;;;;;;;6.35;5.75;;;;;;;;;;4955577;29;20430;-73
2022/07/29 00:30:07;;;;;;;8.65;6.45;;;;;;;;;;4955320;28;20106;-72
2022/07/29 00:32:33;;;;;;;9.18;6.13;;;;;;;;;;4954761;28;20557;-72
2022/07/29 00:37:45;;;;;;;10.68;6.32;;;;;;;;;;4955774;29;20402;-73
2022/07/29 00:40:11;;;;;;;8.82;6.47;;;;;;;;;;4955214;29;20031;-72
2022/07/29 00:42:48;;;;;;;8.63;6.47;;;;;;;;;;4955384;29;20027;-72
2022/07/29 00:45:14;;;;;;;10.80;6.75;;;;;;;;;;4955172;29;20043;-72
2022/07/29 00:47:40;;;;;;;8.90;6.57;;;;;;;;;;4955270;29;20434;-71
2022/07/29 00:50:08;;;;;;;9.70;6.63;;;;;;;;;;4955413;29;20081;-71
2022/07/29 00:52:36;;;;;;;8.10;6.05;;;;;;;;;;4955279;29;20077;-72
2022/07/29 00:55:03;;;;;;;7.72;6.32;;;;;;;;;;4955185;29;20106;-72
2022/07/29 00:57:29;;;;;;;7.10;6.40;;;;;;;;;;4954840;29;20434;-73
2022/07/29 00:59:55;;;;;;;7.90;6.72;;;;;;;;;;4955167;29;20520;-71
2022/07/29 01:02:25;;;;;;;7.60;6.88;;;;;;;;;;4955054;29;20058;-72
2022/07/29 01:04:51;;;;;;;11.35;6.15;;;;;;;;;;4955145;29;20086;-73
2022/07/29 01:07:18;;;;;;;7.00;6.30;;;;;;;;;;4954870;29;20019;-73
2022/07/29 01:09:45;;;;;;;9.60;6.88;;;;;;;;;;4954808;29;20474;-72
2022/07/29 01:12:13;;;;;;;8.07;6.40;;;;;;;;;;4954819;29;20022;-73
2022/07/29 01:14:40;;;;;;;14.90;6.78;;;;;;;;;;4954782;29;20015;-73
2022/07/29 01:17:12;;;;;;;7.78;6.95;;;;;;;;;;4955039;29;20042;-73
2022/07/29 01:19:59;;;;;;;8.30;6.75;;;;;;;;;;4954793;29;20479;-73
2022/07/29 01:22:28;;;;;;;11.98;6.90;;;;;;;;;;4973830;28;20030;-72
2022/07/29 01:25:06;;;;;;;7.55;6.70;;;;;;;;;;4956058;28;20405;-72
2022/07/29 01:28:01;;;;;;;7.45;6.55;;;;;;;;;;4963632;28;20019;-73
2022/07/29 01:30:27;;;;;;;10.38;6.90;;;;;;;;;;4942385;29;20132;-72
2022/07/29 01:32:57;;;;;;;7.72;6.95;;;;;;;;;;4954684;28;20044;-72
2022/07/29 01:35:29;;;;;;;6.70;6.03;;;;;;;;;;4954421;28;20023;-73
2022/07/29 01:38:03;;;;;;;8.02;6.68;;;;;;;;;;4954785;28;20023;-73
2022/07/29 01:40:34;;;;;;;7.90;6.80;;;;;;;;;;4954448;28;20023;-73
2022/07/29 01:43:03;;;;;;;7.38;6.40;;;;;;;;;;4955746;28;20027;-72
2022/07/29 01:45:51;;;;;;;8.13;6.40;;;;;;;;;;4958403;28;20035;-72
2022/07/29 01:48:22;;;;;;;7.40;6.25;;;;;;;;;;4958696;28;20375;-72
2022/07/29 01:50:49;;;;;;;8.10;6.90;;;;;;;;;;4958555;28;20553;-71
2022/07/29 01:53:22;;;;;;;7.97;6.28;;;;;;;;;;4958426;28;20532;-72
2022/07/29 01:55:49;;;;;;;9.55;6.93;;;;;;;;;;4958264;28;20035;-72
2022/07/29 01:58:18;;;;;;;9.45;6.90;;;;;;;;;;4958331;29;20557;-73
2022/07/29 02:00:45;;;;;;;7.50;6.50;;;;;;;;;;4943726;28;20022;-72
2022/07/29 02:03:12;;;;;;;7.82;6.43;;;;;;;;;;4977457;28;20031;-73
2022/07/29 02:05:39;;;;;;;7.45;6.22;;;;;;;;;;4977366;28;20046;-73
2022/07/29 02:08:06;;;;;;;7.45;6.53;;;;;;;;;;4960136;28;20019;-73
2022/07/29 02:10:33;;;;;;;7.80;6.78;;;;;;;;;;4977514;28;20082;-73
2022/07/29 02:13:00;;;;;;;8.57;6.78;;;;;;;;;;4977238;28;20023;-73
2022/07/29 02:15:29;;;;;;;9.18;6.85;;;;;;;;;;4977504;28;20027;-74
2022/07/29 02:17:56;;;;;;;8.18;6.32;;;;;;;;;;4958352;28;20023;-72
2022/07/29 02:20:23;;;;;;;9.02;6.85;;;;;;;;;;4958005;28;20024;-73
2022/07/29 02:22:50;;;;;;;8.90;6.90;;;;;;;;;;4957818;28;20107;-73
2022/07/29 02:25:16;;;;;;;7.50;6.72;;;;;;;;;;4958182;28;20389;-73
2022/07/29 02:27:43;;;;;;;7.75;6.18;;;;;;;;;;4957881;28;20217;-73
2022/07/29 02:30:10;;;;;;;8.43;6.35;;;;;;;;;;4957528;28;20422;-73
2022/07/29 02:32:37;;;;;;;10.70;6.90;;;;;;;;;;4957745;28;20043;-73
2022/07/29 02:35:03;;;;;;;7.32;6.55;;;;;;;;;;4957645;28;20098;-72
2022/07/29 02:37:31;;;;;;;8.90;6.53;;;;;;;;;;4957651;28;20019;-71
2022/07/29 02:39:57;;;;;;;10.27;6.90;;;;;;;;;;4957506;28;20031;-72
2022/07/29 02:42:24;;;;;;;7.82;6.47;;;;;;;;;;4957315;28;20581;-73
2022/07/29 02:44:51;;;;;;;7.25;6.55;;;;;;;;;;4957512;28;20054;-72
2022/07/29 02:47:19;;;;;;;7.38;6.68;;;;;;;;;;4957263;28;20015;-72
2022/07/29 02:49:53;;;;;;;11.70;7.13;;;;;;;;;;4957516;28;20031;-73
2022/07/29 02:52:22;;;;;;;8.82;7.05;;;;;;;;;;4957247;28;20023;-73
2022/07/29 02:54:54;;;;;;;9.90;6.28;;;;;;;;;;4956508;28;20059;-73
2022/07/29 02:57:30;;;;;;;8.65;6.90;;;;;;;;;;4956923;28;20083;-73
2022/07/29 02:59:58;;;;;;;7.93;6.55;;;;;;;;;;4957342;28;20083;-73
2022/07/29 03:02:26;;;;;;;6.95;6.25;;;;;;;;;;4956920;28;20056;-73
2022/07/29 03:04:53;;;;;;;8.25;7.28;;;;;;;;;;4957241;28;20482;-73
2022/07/29 03:07:20;;;;;;;7.47;6.50;;;;;;;;;;4939734;28;20055;-73
2022/07/29 03:09:47;;;;;;;10.45;6.57;;;;;;;;;;4957013;28;20027;-73
2022/07/29 03:12:14;;;;;;;8.32;7.00;;;;;;;;;;4956840;28;20024;-73
2022/07/29 03:14:40;;;;;;;9.05;6.78;;;;;;;;;;4939813;29;20035;-73
2022/07/29 03:17:07;;;;;;;8.48;6.85;;;;;;;;;;4957186;28;20495;-73
2022/07/29 03:19:34;;;;;;;8.88;7.20;;;;;;;;;;4956941;28;20086;-73
2022/07/29 03:22:00;;;;;;;9.52;7.57;;;;;;;;;;4957314;28;20094;-73
2022/07/29 03:24:27;;;;;;;9.32;6.60;;;;;;;;;;4956595;28;20037;-73
2022/07/29 03:26:54;;;;;;;12.73;7.00;;;;;;;;;;4956692;28;20030;-71
2022/07/29 03:29:20;;;;;;;10.60;7.30;;;;;;;;;;4956657;28;20023;-71
2022/07/29 03:31:47;;;;;;;8.65;7.07;;;;;;;;;;4956469;28;20028;-72
2022/07/29 03:34:13;;;;;;;8.82;6.88;;;;;;;;;;4956738;29;20047;-73
2022/07/29 03:36:39;;;;;;;9.20;6.80;;;;;;;;;;4955520;28;20027;-73
2022/07/29 03:39:06;;;;;;;10.52;7.07;;;;;;;;;;4956246;28;20019;-71
2022/07/29 03:41:33;;;;;;;13.10;6.70;;;;;;;;;;4956288;28;20027;-72
2022/07/29 03:43:59;;;;;;;7.35;6.63;;;;;;;;;;4956424;28;20095;-73
2022/07/29 03:46:27;;;;;;;6.93;6.25;;;;;;;;;;4956308;29;20046;-71
2022/07/29 03:48:56;;;;;;;7.00;6.30;;;;;;;;;;4956307;28;20505;-71
2022/07/29 03:51:22;;;;;;;8.40;6.40;;;;;;;;;;4956175;28;20051;-72
2022/07/29 03:53:48;;;;;;;9.38;7.13;;;;;;;;;;4955997;28;20019;-72
2022/07/29 03:56:16;;;;;;;7.32;6.63;;;;;;;;;;4956233;28;20054;-72
2022/07/29 03:58:42;;;;;;;9.38;7.22;;;;;;;;;;4955959;29;20027;-72
2022/07/29 04:01:08;;;;;;;8.38;6.63;;;;;;;;;;4956159;28;20031;-72
2022/07/29 04:03:35;;;;;;;10.45;7.10;;;;;;;;;;4956187;28;20391;-73
2022/07/29 04:06:05;;;;;;;11.65;6.65;;;;;;;;;;4938977;29;20035;-72
2022/07/29 04:08:32;;;;;;;7.83;6.50;;;;;;;;;;4956104;28;20363;-71
2022/07/29 04:10:58;;;;;;;9.30;7.10;;;;;;;;;;4955989;28;20095;-72
2022/07/29 04:13:25;;;;;;;8.38;7.03;;;;;;;;;;4956274;28;20027;-72
2022/07/29 04:15:51;;;;;;;11.55;7.55;;;;;;;;;;4955748;28;20065;-72
2022/07/29 04:18:17;;;;;;;8.68;6.53;;;;;;;;;;4955854;28;20015;-72
2022/07/29 04:20:43;;;;;;;10.82;7.22;;;;;;;;;;4955807;28;20542;-72
2022/07/29 04:23:09;;;;;;;11.43;7.10;;;;;;;;;;4955668;28;20036;-72
2022/07/29 04:25:39;;;;;;;9.35;7.00;;;;;;;;;;4955598;29;20117;-72
2022/07/29 04:28:05;;;;;;;9.05;6.78;;;;;;;;;;4955438;28;20027;-71
2022/07/29 04:30:31;;;;;;;9.57;7.05;;;;;;;;;;4955788;28;20023;-71
2022/07/29 04:32:58;;;;;;;10.30;7.63;;;;;;;;;;4955414;28;20055;-72
2022/07/29 04:35:24;;;;;;;9.23;7.32;;;;;;;;;;4955403;28;20055;-72
2022/07/29 04:37:50;;;;;;;18.83;15.73;;;;;;;;;;4955486;28;20019;-72
2022/07/29 04:40:16;;;;;;;29.02;25.52;;;;;;;;;;4955170;28;20102;-72
2022/07/29 04:42:42;;;;;;;27.98;19.60;;;;;;;;;;4955421;28;20047;-72
2022/07/29 04:45:08;;;;;;;25.17;20.42;;;;;;;;;;4955311;28;20039;-72
2022/07/29 04:47:34;;;;;;;13.30;9.73;;;;;;;;;;4953823;29;20507;-71
2022/07/29 04:50:00;;;;;;;11.48;8.82;;;;;;;;;;4955300;28;20039;-70
2022/07/29 04:52:27;;;;;;;9.68;8.65;;;;;;;;;;4955125;28;20022;-72
2022/07/29 04:54:53;;;;;;;10.50;8.38;;;;;;;;;;4955020;28;20027;-72
2022/07/29 04:57:19;;;;;;;10.57;8.18;;;;;;;;;;4954916;28;20015;-72
2022/07/29 04:59:45;;;;;;;10.32;7.80;;;;;;;;;;4955080;28;20082;-72
2022/07/29 05:02:11;;;;;;;10.68;8.15;;;;;;;;;;4955024;28;20023;-72
2022/07/29 05:04:37;;;;;;;13.30;8.10;;;;;;;;;;4954931;28;20063;-71
2022/07/29 05:07:03;;;;;;;11.95;8.05;;;;;;;;;;4954998;28;20110;-72
2022/07/29 05:09:30;;;;;;;16.65;8.68;;;;;;;;;;4955073;28;20433;-70
2022/07/29 05:11:56;;;;;;;11.82;7.93;;;;;;;;;;4954907;28;20110;-72
2022/07/29 05:14:34;;;;;;;8.35;7.43;;;;;;;;;;4954820;28;20019;-71
2022/07/29 05:17:00;;;;;;;10.93;8.27;;;;;;;;;;4954491;28;20466;-71
2022/07/29 05:19:26;;;;;;;9.90;7.75;;;;;;;;;;4954456;28;20074;-72
2022/07/29 05:21:52;;;;;;;11.52;7.90;;;;;;;;;;4954883;28;20038;-73
2022/07/29 05:24:18;;;;;;;10.00;7.50;;;;;;;;;;4954325;28;20463;-72
2022/07/29 05:26:44;;;;;;;12.23;8.07;;;;;;;;;;4954690;28;20027;-72
2022/07/29 05:29:11;;;;;;;10.52;7.60;;;;;;;;;;4954865;28;20027;-71
2022/07/29 05:31:37;;;;;;;8.50;7.10;;;;;;;;;;4954619;28;20042;-73
2022/07/29 05:34:03;;;;;;;11.43;8.13;;;;;;;;;;4954452;28;20051;-72
2022/07/29 05:36:29;;;;;;;8.57;7.65;;;;;;;;;;4954505;28;20019;-72
2022/07/29 05:38:55;;;;;;;10.85;8.07;;;;;;;;;;4937298;29;20023;-71
2022/07/29 05:41:21;;;;;;;10.40;7.25;;;;;;;;;;4954501;28;20166;-71
2022/07/29 05:43:47;;;;;;;9.45;7.35;;;;;;;;;;4954623;28;20019;-72
2022/07/29 05:46:13;;;;;;;8.95;8.05;;;;;;;;;;4954773;28;20043;-73
2022/07/29 05:48:40;;;;;;;8.70;7.03;;;;;;;;;;4954384;28;20100;-73
2022/07/29 05:51:06;;;;;;;10.23;8.25;;;;;;;;;;4954653;28;20036;-69
2022/07/29 05:53:32;;;;;;;13.50;9.07;;;;;;;;;;4954220;28;20450;-71
2022/07/29 05:55:58;;;;;;;10.20;7.55;;;;;;;;;;4954502;28;20023;-73
2022/07/29 05:58:24;;;;;;;11.27;8.07;;;;;;;;;;4954321;28;20031;-73
2022/07/29 06:00:50;;;;;;;11.98;9.05;;;;;;;;;;4954163;28;20030;-72
2022/07/29 06:03:16;;;;;;;11.38;9.45;;;;;;;;;;4954783;28;20032;-74
2022/07/29 06:05:42;;;;;;;9.80;8.10;;;;;;;;;;4954143;28;20565;-74
2022/07/29 06:08:08;;;;;;;13.18;8.95;;;;;;;;;;4954240;28;20390;-73
2022/07/29 06:10:38;;;;;;;16.63;9.75;;;;;;;;;;4954091;28;20049;-72
2022/07/29 06:13:04;;;;;;;14.88;8.60;;;;;;;;;;4954166;28;20406;-72
2022/07/29 06:15:30;;;;;;;11.82;8.32;;;;;;;;;;4954299;28;20054;-71
2022/07/29 06:17:56;;;;;;;11.68;8.60;;;;;;;;;;4954460;28;20065;-72
2022/07/29 06:20:23;;;;;;;10.15;7.38;;;;;;;;;;4954317;28;20024;-72
2022/07/29 06:22:49;;;;;;;12.73;8.00;;;;;;;;;;4954207;28;20398;-72
2022/07/29 06:25:16;;;;;;;11.70;8.35;;;;;;;;;;4954512;28;20042;-72
2022/07/29 06:27:42;;;;;;;14.30;8.43;;;;;;;;;;4953982;28;20015;-72
2022/07/29 06:30:08;;;;;;;12.02;8.00;;;;;;;;;;4955139;28;20046;-72
2022/07/29 06:32:34;;;;;;;20.30;8.45;;;;;;;;;;4957431;28;20135;-72
2022/07/29 06:35:00;;;;;;;14.43;7.47;;;;;;;;;;4957625;28;20053;-72
2022/07/29 06:37:26;;;;;;;12.93;7.95;;;;;;;;;;4957741;28;20019;-73
2022/07/29 06:40:59;;;;;;;12.32;8.10;;;;;;;;;;4957351;28;20419;-71
2022/07/29 06:42:42;;;;;;;10.10;7.80;;;;;;;;;;4957257;28;20061;-72
2022/07/29 06:45:08;;;;;;;11.43;7.55;;;;;;;;;;4957279;28;20422;-72
2022/07/29 06:47:35;;;;;;;12.35;8.88;;;;;;;;;;4957469;28;20508;-73
2022/07/29 06:50:01;;;;;;;10.38;8.20;;;;;;;;;;4957510;28;20090;-73
2022/07/29 06:52:27;;;;;;;11.45;7.28;;;;;;;;;;4957166;28;20022;-73
2022/07/29 06:54:54;;;;;;;9.35;7.60;;;;;;;;;;4957264;28;20114;-73
2022/07/29 06:57:20;;;;;;;9.45;7.70;;;;;;;;;;4956887;28;20098;-73
2022/07/29 06:59:47;;;;;;;14.38;7.95;;;;;;;;;;4957217;28;20027;-73
2022/07/29 07:02:13;;;;;;;9.75;7.97;;;;;;;;;;4957327;28;20034;-73
2022/07/29 07:04:39;;;;;;;9.48;6.65;;;;;;;;;;4956998;28;20059;-73
2022/07/29 07:07:05;;;;;;;11.57;7.85;;;;;;;;;;4939564;28;20070;-73
2022/07/29 07:09:32;;;;;;;9.70;7.03;;;;;;;;;;4956898;28;20019;-73
2022/07/29 07:11:58;;;;;;;10.13;7.60;;;;;;;;;;4956915;28;20055;-73
2022/07/29 07:14:26;;;;;;;10.30;7.15;;;;;;;;;;4956867;28;20026;-73
2022/07/29 07:16:52;;;;;;;10.38;6.80;;;;;;;;;;4956906;28;20077;-73
2022/07/29 07:19:19;;;;;;;11.15;6.75;;;;;;;;;;4956846;28;20019;-73
2022/07/29 07:21:45;;;;;;;9.70;6.90;;;;;;;;;;4956774;28;20027;-73
2022/07/29 07:24:11;;;;;;;11.57;7.55;;;;;;;;;;4956817;28;20090;-73
2022/07/29 07:26:39;;;;;;;8.10;6.63;;;;;;;;;;4956542;28;20027;-73
2022/07/29 07:29:05;;;;;;;11.32;8.00;;;;;;;;;;4956537;28;20023;-73
2022/07/29 07:31:31;;;;;;;9.15;7.00;;;;;;;;;;4956450;28;20035;-72
2022/07/29 07:33:57;;;;;;;10.02;7.22;;;;;;;;;;4956801;28;20051;-73
2022/07/29 07:36:23;;;;;;;8.00;6.63;;;;;;;;;;4956541;28;20030;-72
2022/07/29 07:38:50;;;;;;;10.30;6.50;;;;;;;;;;4956874;28;20495;-72
2022/07/29 07:41:16;;;;;;;12.23;6.80;;;;;;;;;;4956230;28;20054;-72
2022/07/29 07:43:42;;;;;;;10.50;7.65;;;;;;;;;;4956160;28;20475;-73
2022/07/29 07:46:08;;;;;;;7.63;6.57;;;;;;;;;;4956148;28;20039;-72
2022/07/29 07:48:34;;;;;;;13.88;8.15;;;;;;;;;;4956129;28;20530;-73
2022/07/29 07:51:01;;;;;;;9.00;7.00;;;;;;;;;;4956272;28;20074;-73
2022/07/29 07:53:29;;;;;;;9.45;7.55;;;;;;;;;;4955924;28;20066;-73
2022/07/29 07:55:55;;;;;;;13.48;8.63;;;;;;;;;;4956261;28;20024;-73
2022/07/29 07:58:21;;;;;;;9.48;6.50;;;;;;;;;;4956094;28;20039;-73
2022/07/29 08:00:48;;;;;;;7.63;6.40;;;;;;;;;;4955961;28;20410;-72
2022/07/29 08:03:14;;;;;;;10.40;7.82;;;;;;;;;;4956276;28;20082;-72
2022/07/29 08:05:40;;;;;;;9.35;6.65;;;;;;;;;;4955686;28;20047;-72
2022/07/29 08:08:06;;;;;;;11.98;6.93;;;;;;;;;;4955846;28;20027;-73
2022/07/29 08:10:51;;;;;;;8.25;7.05;;;;;;;;;;4955818;28;20050;-72
2022/07/29 08:13:18;;;;;;;7.53;5.97;;;;;;;;;;4938374;29;20046;-73
2022/07/29 08:15:45;;;;;;;8.13;7.15;;;;;;;;;;4955752;28;20063;-73
2022/07/29 08:18:11;;;;;;;9.95;7.10;;;;;;;;;;4955783;28;20025;-73
2022/07/29 08:20:38;;;;;;;8.05;5.95;;;;;;;;;;4955562;28;20055;-73
2022/07/29 08:23:06;;;;;;;8.23;6.53;;;;;;;;;;4955926;28;20023;-72
2022/07/29 08:25:41;;;;;;;11.63;6.95;;;;;;;;;;4955595;29;20031;-73
2022/07/29 08:28:07;;;;;;;8.20;6.75;;;;;;;;;;4955372;28;20039;-72
2022/07/29 08:30:34;;;;;;;7.72;6.93;;;;;;;;;;4955475;28;20107;-73
2022/07/29 08:33:01;;;;;;;11.40;7.00;;;;;;;;;;4955333;28;20055;-73
2022/07/29 08:35:27;;;;;;;9.82;7.30;;;;;;;;;;4955156;28;20027;-73
2022/07/29 08:37:53;;;;;;;8.93;6.93;;;;;;;;;;4955548;28;20038;-73
2022/07/29 08:40:20;;;;;;;9.70;6.30;;;;;;;;;;4955348;28;20023;-73
2022/07/29 08:42:46;;;;;;;11.35;8.00;;;;;;;;;;4955316;28;20027;-72
2022/07/29 08:45:13;;;;;;;10.18;7.47;;;;;;;;;;4955096;28;20497;-73
2022/07/29 08:47:39;;;;;;;10.88;5.90;;;;;;;;;;4955209;28;20027;-73
2022/07/29 08:50:06;;;;;;;8.50;6.32;;;;;;;;;;4955008;28;20023;-73
2022/07/29 08:52:35;;;;;;;8.25;6.68;;;;;;;;;;4954364;28;20026;-73
2022/07/29 08:55:02;;;;;;;12.05;8.20;;;;;;;;;;4955115;28;20019;-73
2022/07/29 08:57:28;;;;;;;8.43;5.78;;;;;;;;;;4954729;28;20056;-73
2022/07/29 08:59:54;;;;;;;7.05;6.35;;;;;;;;;;4954905;28;20059;-73
2022/07/29 09:02:21;;;;;;;7.05;6.22;;;;;;;;;;4955117;28;20493;-73
2022/07/29 09:04:48;;;;;;;8.60;6.38;;;;;;;;;;4954841;28;20043;-72
2022/07/29 09:07:18;;;;;;;8.50;6.68;;;;;;;;;;4955043;28;20034;-73
2022/07/29 09:09:44;;;;;;;7.87;6.73;;;;;;;;;;4937622;29;20031;-72
2022/07/29 09:12:13;;;;;;;10.70;6.63;;;;;;;;;;4954804;28;20051;-73
2022/07/29 09:14:40;;;;;;;8.15;6.68;;;;;;;;;;4954734;28;20019;-74
2022/07/29 09:17:06;;;;;;;11.73;7.70;;;;;;;;;;4954698;28;20027;-73
2022/07/29 09:19:36;;;;;;;11.10;7.78;;;;;;;;;;4954515;28;20027;-72
2022/07/29 09:22:04;;;;;;;8.03;7.07;;;;;;;;;;4954739;28;20030;-72
2022/07/29 09:24:34;;;;;;;9.00;6.45;;;;;;;;;;4954514;28;20031;-72
2022/07/29 09:27:00;;;;;;;7.80;6.82;;;;;;;;;;4954739;28;20118;-73
2022/07/29 09:29:27;;;;;;;10.60;7.80;;;;;;;;;;4954509;28;20065;-72
2022/07/29 09:31:54;;;;;;;10.00;7.05;;;;;;;;;;4936866;29;20065;-73
2022/07/29 09:34:28;;;;;;;9.18;7.22;;;;;;;;;;4954240;28;20051;-73
2022/07/29 09:36:55;;;;;;;8.88;7.05;;;;;;;;;;4954605;28;20474;-74
2022/07/29 09:39:29;;;;;;;9.45;6.85;;;;;;;;;;4954739;28;20035;-74
2022/07/29 09:41:57;;;;;;;7.35;6.63;;;;;;;;;;4954481;28;20031;-74
2022/07/29 09:44:24;;;;;;;7.47;6.40;;;;;;;;;;4954259;28;20026;-73
2022/07/29 09:47:06;;;;;;;8.88;6.45;;;;;;;;;;4954468;28;20439;-73
2022/07/29 09:49:36;;;;;;;8.23;6.68;;;;;;;;;;4954618;28;20111;-74
2022/07/29 09:52:06;;;;;;;9.13;6.72;;;;;;;;;;4954375;28;20474;-72
2022/07/29 09:54:38;;;;;;;8.90;8.10;;;;;;;;;;4954795;28;20509;-72
2022/07/29 09:57:12;;;;;;;8.32;7.53;;;;;;;;;;4954393;28;20071;-72
2022/07/29 09:59:39;;;;;;;8.27;7.30;;;;;;;;;;4954401;28;20031;-72
2022/07/29 10:02:12;;;;;;;8.10;7.13;;;;;;;;;;4954389;28;20042;-73
2022/07/29 10:04:42;;;;;;;8.30;7.50;;;;;;;;;;4956529;28;20031;-73
2022/07/29 10:07:08;;;;;;;8.63;7.05;;;;;;;;;;4957878;28;20506;-72
2022/07/29 10:09:35;;;;;;;9.55;8.35;;;;;;;;;;4957944;28;20027;-72
2022/07/29 10:12:13;;;;;;;8.35;7.55;;;;;;;;;;4957816;28;20081;-72
2022/07/29 10:14:39;;;;;;;9.05;7.10;;;;;;;;;;4945081;29;20030;-72
2022/07/29 10:19:42;;;;;;;8.30;7.50;;;;;;;;;;5239940;23;20161;-73
2022/07/29 10:22:09;;;;;;;7.93;6.65;;;;;;;;;;4960126;28;20023;-72
2022/07/29 10:24:37;;;;;;;8.32;6.63;;;;;;;;;;4976762;28;20037;-72
2022/07/29 10:27:03;;;;;;;9.10;7.30;;;;;;;;;;4966108;28;20108;-73
2022/07/29 10:29:31;;;;;;;9.55;7.20;;;;;;;;;;4983386;28;20027;-72
2022/07/29 10:32:16;;;;;;;10.50;7.82;;;;;;;;;;5212460;23;20109;-73
2022/07/29 10:34:54;;;;;;;10.70;7.90;;;;;;;;;;4996183;28;20026;-73
2022/07/29 10:37:20;;;;;;;10.57;7.97;;;;;;;;;;4966384;28;20019;-73
2022/07/29 10:39:54;;;;;;;8.23;7.22;;;;;;;;;;4978800;28;20030;-73
2022/07/29 10:42:23;;;;;;;9.05;7.43;;;;;;;;;;4996331;28;20481;-73
2022/07/29 10:44:49;;;;;;;8.35;7.03;;;;;;;;;;4996188;28;20042;-73
2022/07/29 10:47:25;;;;;;;8.73;7.93;;;;;;;;;;4995954;28;20022;-73
2022/07/29 10:49:58;;;;;;;8.75;7.85;;;;;;;;;;4995989;28;20101;-73
2022/07/29 10:52:27;;;;;;;13.15;9.77;;;;;;;;;;4996078;28;20019;-73
2022/07/29 10:54:53;;;;;;;10.07;8.07;;;;;;;;;;4996362;28;20022;-73
2022/07/29 10:57:30;;;;;;;8.80;7.75;;;;;;;;;;4995911;28;20026;-72
2022/07/29 11:00:05;;;;;;;9.23;7.65;;;;;;;;;;4995913;28;20027;-72
2022/07/29 11:05:01;;;;;;;11.00;8.05;;;;;;;;;;4996110;28;20061;-73
2022/07/29 11:07:29;;;;;;;10.02;7.65;;;;;;;;;;4995968;28;20053;-73
2022/07/29 11:10:13;;;;;;;9.13;7.68;;;;;;;;;;4995901;28;20554;-73
2022/07/29 11:12:39;;;;;;;8.07;7.13;;;;;;;;;;4995600;28;20047;-74
2022/07/29 11:15:08;;;;;;;8.15;7.45;;;;;;;;;;4994934;28;20078;-73
2022/07/29 11:17:52;;;;;;;8.52;7.72;;;;;;;;;;4995435;28;20026;-72
2022/07/29 11:20:37;;;;;;;9.20;7.90;;;;;;;;;;4995652;28;20041;-72
2022/07/29 11:23:26;;;;;;;8.55;7.40;;;;;;;;;;4995520;28;20015;-72
2022/07/29 11:26:10;;;;;;;9.43;7.35;;;;;;;;;;4995313;28;20062;-72
2022/07/29 11:28:47;;;;;;;8.60;7.70;;;;;;;;;;4995615;28;20023;-72
2022/07/29 11:31:14;;;;;;;9.05;7.78;;;;;;;;;;4976404;28;20042;-73
2022/07/29 11:33:40;;;;;;;8.50;7.70;;;;;;;;;;4975773;28;20051;-72
2022/07/29 11:36:10;;;;;;;8.48;7.68;;;;;;;;;;4975831;28;20027;-72
2022/07/29 11:38:37;;;;;;;7.97;7.18;;;;;;;;;;4975771;28;20026;-72
2022/07/29 11:41:12;;;;;;;8.32;7.22;;;;;;;;;;4975866;28;20077;-72
2022/07/29 11:43:47;;;;;;;8.18;7.30;;;;;;;;;;4975682;28;20082;-72
2022/07/29 11:46:13;;;;;;;8.57;7.78;;;;;;;;;;4975700;28;20046;-72
2022/07/29 11:48:43;;;;;;;10.00;9.10;;;;;;;;;;4975407;28;20359;-71
2022/07/29 11:51:12;;;;;;;8.57;7.65;;;;;;;;;;4975636;28;20503;-72
2022/07/29 11:53:39;;;;;;;9.13;8.23;;;;;;;;;;4975370;28;20023;-72
2022/07/29 11:56:09;;;;;;;10.48;8.55;;;;;;;;;;4958190;28;20058;-72
2022/07/29 11:58:35;;;;;;;9.82;8.82;;;;;;;;;;4957986;28;20030;-72
2022/07/29 12:01:01;;;;;;;9.65;8.50;;;;;;;;;;4975964;28;20026;-72
2022/07/29 12:03:28;;;;;;;8.73;7.95;;;;;;;;;;4975726;28;20038;-72
2022/07/29 12:05:55;;;;;;;11.73;10.52;;;;;;;;;;4975201;28;20027;-72
2022/07/29 12:08:22;;;;;;;8.95;8.05;;;;;;;;;;4957397;28;20071;-72
2022/07/29 12:10:49;;;;;;;9.65;8.65;;;;;;;;;;4975081;28;20056;-72
2022/07/29 12:13:16;;;;;;;9.07;8.18;;;;;;;;;;4974975;28;20027;-72
2022/07/29 12:15:44;;;;;;;8.52;7.82;;;;;;;;;;4975346;28;20027;-72
2022/07/29 12:18:18;;;;;;;9.98;7.97;;;;;;;;;;4975005;28;20019;-72
2022/07/29 12:20:44;;;;;;;9.13;7.85;;;;;;;;;;4957552;28;20027;-72
2022/07/29 12:23:12;;;;;;;9.30;8.40;;;;;;;;;;4974978;28;20468;-72
2022/07/29 12:25:38;;;;;;;9.32;8.43;;;;;;;;;;4974793;28;20118;-72
2022/07/29 12:28:06;;;;;;;11.27;9.13;;;;;;;;;;4974808;28;20023;-72
2022/07/29 12:30:38;;;;;;;8.73;7.95;;;;;;;;;;4974656;28;20078;-72
2022/07/29 12:33:10;;;;;;;9.55;8.50;;;;;;;;;;4974582;28;20047;-72
2022/07/29 12:35:36;;;;;;;8.90;8.05;;;;;;;;;;4974772;28;20050;-72
2022/07/29 12:38:03;;;;;;;9.02;8.20;;;;;;;;;;4974669;28;20030;-71
2022/07/29 12:40:29;;;;;;;8.90;8.00;;;;;;;;;;4974537;28;20506;-72
2022/07/29 12:43:12;;;;;;;9.15;8.05;;;;;;;;;;4974834;28;20031;-72
2022/07/29 12:45:39;;;;;;;8.93;8.02;;;;;;;;;;4974401;28;20082;-72
2022/07/29 12:48:06;;;;;;;8.05;7.35;;;;;;;;;;4974470;28;20418;-71
2022/07/29 12:50:32;;;;;;;8.80;8.00;;;;;;;;;;4974396;28;20363;-72
2022/07/29 12:53:12;;;;;;;9.88;8.68;;;;;;;;;;4974538;28;20023;-72
2022/07/29 12:55:41;;;;;;;9.48;8.57;;;;;;;;;;4974276;28;20420;-72
2022/07/29 12:58:07;;;;;;;9.48;8.57;;;;;;;;;;4974285;28;20018;-72
2022/07/29 13:00:33;;;;;;;8.95;8.10;;;;;;;;;;4974290;28;20050;-72
2022/07/29 13:03:03;;;;;;;9.45;8.55;;;;;;;;;;4957144;28;20059;-72
2022/07/29 13:05:42;;;;;;;9.60;8.60;;;;;;;;;;4974120;28;20474;-72
2022/07/29 13:08:15;;;;;;;11.90;9.73;;;;;;;;;;4956934;28;20430;-72
2022/07/29 13:10:42;;;;;;;9.32;8.45;;;;;;;;;;4974066;28;20035;-72
2022/07/29 13:13:10;;;;;;;9.18;8.30;;;;;;;;;;4974187;28;20023;-72
2022/07/29 13:15:39;;;;;;;10.20;8.32;;;;;;;;;;4973886;28;20038;-72
2022/07/29 13:18:25;;;;;;;9.02;8.15;;;;;;;;;;4973989;28;20025;-72
2022/07/29 13:20:51;;;;;;;9.77;8.82;;;;;;;;;;4973815;28;20026;-72
2022/07/29 13:23:17;;;;;;;9.23;7.78;;;;;;;;;;4956332;28;20552;-72
2022/07/29 13:25:43;;;;;;;9.77;8.40;;;;;;;;;;4973942;28;20162;-72
2022/07/29 13:28:11;;;;;;;9.50;8.32;;;;;;;;;;4974077;28;20038;-71
2022/07/29 13:30:37;;;;;;;9.95;8.77;;;;;;;;;;4973892;28;20023;-72
2022/07/29 13:33:03;;;;;;;9.10;8.30;;;;;;;;;;4960209;28;20059;-72
2022/07/29 13:35:29;;;;;;;11.98;8.68;;;;;;;;;;4955162;29;20098;-72
2022/07/29 13:37:55;;;;;;;8.75;7.95;;;;;;;;;;4954426;29;20027;-72
2022/07/29 13:40:22;;;;;;;9.70;8.80;;;;;;;;;;4954254;29;20028;-72
2022/07/29 13:42:48;;;;;;;9.40;8.50;;;;;;;;;;4954761;29;20079;-72
2022/07/29 13:45:14;;;;;;;9.20;8.30;;;;;;;;;;4954497;29;20043;-73
2022/07/29 13:47:40;;;;;;;10.63;9.63;;;;;;;;;;4954513;29;20118;-73
2022/07/29 13:50:09;;;;;;;8.82;8.02;;;;;;;;;;4954094;29;20027;-73
2022/07/29 13:52:36;;;;;;;11.30;10.20;;;;;;;;;;4954438;29;20023;-73
2022/07/29 13:55:02;;;;;;;10.07;8.77;;;;;;;;;;4954602;29;20031;-72
2022/07/29 13:57:28;;;;;;;11.07;8.73;;;;;;;;;;4954275;29;20115;-72
2022/07/29 13:59:55;;;;;;;10.02;9.10;;;;;;;;;;4954409;29;20031;-73
2022/07/29 14:02:21;;;;;;;15.38;10.00;;;;;;;;;;4954390;29;20023;-72
2022/07/29 14:04:47;;;;;;;13.93;9.70;;;;;;;;;;4954251;29;20027;-71
2022/07/29 14:07:13;;;;;;;14.15;9.13;;;;;;;;;;4954075;29;20538;-71
2022/07/29 14:09:39;;;;;;;10.13;8.90;;;;;;;;;;4954158;29;20031;-72
2022/07/29 14:12:05;;;;;;;9.80;8.90;;;;;;;;;;4954253;29;20027;-72
2022/07/29 14:14:32;;;;;;;15.55;10.02;;;;;;;;;;4954278;29;20066;-72
2022/07/29 14:16:58;;;;;;;11.63;10.43;;;;;;;;;;4954314;29;20023;-72
2022/07/29 14:19:24;;;;;;;11.50;10.45;;;;;;;;;;4954060;29;20031;-72
2022/07/29 14:21:50;;;;;;;11.93;10.63;;;;;;;;;;4954040;29;20053;-72
2022/07/29 14:24:16;;;;;;;11.98;10.00;;;;;;;;;;4936507;29;20032;-72
2022/07/29 14:26:42;;;;;;;10.45;9.38;;;;;;;;;;4953914;29;20173;-72
2022/07/29 14:29:08;;;;;;;10.70;9.70;;;;;;;;;;4954231;29;20022;-72
2022/07/29 14:31:34;;;;;;;10.23;9.32;;;;;;;;;;4953715;28;20047;-71
2022/07/29 14:34:00;;;;;;;11.20;9.20;;;;;;;;;;4953944;29;20367;-72
2022/07/29 14:36:27;;;;;;;10.13;9.20;;;;;;;;;;4953914;29;20024;-73
2022/07/29 14:38:53;;;;;;;11.70;9.85;;;;;;;;;;4952846;29;20367;-73
2022/07/29 14:41:21;;;;;;;10.35;9.45;;;;;;;;;;4954054;29;20031;-73
2022/07/29 14:43:47;;;;;;;11.02;10.02;;;;;;;;;;4952741;29;20019;-72
2022/07/29 14:46:13;;;;;;;10.02;9.02;;;;;;;;;;4953815;29;20032;-73
2022/07/29 14:48:39;;;;;;;11.55;10.35;;;;;;;;;;4952041;29;20031;-72
2022/07/29 14:51:05;;;;;;;12.02;9.70;;;;;;;;;;4955206;28;20102;-73